Time;durP1;ratioP1;P1;durP2;ratioP2;P2;SDS_P1;SDS_P2;PMS_P1;PMS_P2;Temp;Humidity;BMP_temperature;BMP_pressure;BME280_temperature;BME280_humidity;BME280_pressure;Samples;Min_cycle;Max_cycle;Signal;HPM_P1;HPM_P2
2023/08/16 00:00:03;;;;;;;1.38;0.90;;;20.30;99.90;;;;;;5074077;28;20056;-36
2023/08/16 00:02:31;;;;;;;1.42;0.90;;;20.30;99.90;;;;;;5064760;28;20025;-36
2023/08/16 00:04:57;;;;;;;1.27;1.02;;;20.20;99.90;;;;;;5074758;28;20103;-38
2023/08/16 00:07:23;;;;;;;1.58;0.93;;;20.20;99.90;;;;;;5063521;28;20103;-37
2023/08/16 00:09:52;;;;;;;2.88;1.20;;;20.10;99.90;;;;;;5076309;28;20409;-36
2023/08/16 00:12:18;;;;;;;1.60;1.00;;;20.10;99.90;;;;;;5062313;28;20024;-37
2023/08/16 00:14:47;;;;;;;2.25;1.27;;;20.10;99.90;;;;;;5073161;28;20016;-37
2023/08/16 00:17:12;;;;;;;2.30;1.10;;;20.10;99.90;;;;;;5063768;28;20144;-37
2023/08/16 00:19:39;;;;;;;1.35;0.98;;;20.10;99.90;;;;;;5070453;28;20289;-36
2023/08/16 00:22:04;;;;;;;1.42;0.90;;;20.10;99.90;;;;;;5066604;28;20039;-36
2023/08/16 00:24:30;;;;;;;1.15;0.98;;;20.00;99.90;;;;;;5069715;28;20017;-37
2023/08/16 00:26:56;;;;;;;1.25;1.10;;;19.90;99.90;;;;;;5069495;28;20440;-38
2023/08/16 00:29:22;;;;;;;1.92;1.20;;;19.80;99.90;;;;;;5067025;28;20040;-37
2023/08/16 00:31:48;;;;;;;2.40;1.20;;;19.70;99.90;;;;;;5072149;28;20029;-36
2023/08/16 00:34:13;;;;;;;1.45;1.20;;;19.70;99.90;;;;;;5063628;28;20017;-35
2023/08/16 00:36:39;;;;;;;1.73;1.27;;;19.70;99.90;;;;;;5074688;28;20071;-36
2023/08/16 00:39:08;;;;;;;2.95;1.35;;;19.70;99.90;;;;;;5064215;28;20049;-37
2023/08/16 00:41:34;;;;;;;1.30;1.20;;;19.70;99.90;;;;;;5076632;28;20464;-39
2023/08/16 00:43:59;;;;;;;3.22;1.73;;;19.70;99.90;;;;;;5066983;28;20035;-38
2023/08/16 00:46:27;;;;;;;1.95;1.42;;;19.60;99.90;;;;;;5079864;28;20139;-38
2023/08/16 00:48:53;;;;;;;3.47;1.80;;;19.60;99.90;;;;;;5066655;28;20028;-37
2023/08/16 00:51:20;;;;;;;2.10;1.60;;;19.50;99.90;;;;;;5079419;28;20059;-36
2023/08/16 00:53:46;;;;;;;1.50;1.40;;;19.50;99.90;;;;;;5067450;28;20024;-36
2023/08/16 00:56:16;;;;;;;2.13;1.70;;;19.40;99.90;;;;;;5075945;28;20364;-37
2023/08/16 00:58:43;;;;;;;2.13;1.90;;;19.40;99.90;;;;;;5067701;28;20031;-37
2023/08/16 01:01:10;;;;;;;3.13;1.63;;;19.30;99.90;;;;;;5075709;28;20043;-38
2023/08/16 01:03:36;;;;;;;2.97;1.40;;;19.30;99.90;;;;;;5076394;28;20028;-37
2023/08/16 01:06:04;;;;;;;3.50;1.80;;;19.30;99.90;;;;;;5079246;28;20078;-38
2023/08/16 01:08:31;;;;;;;2.97;1.60;;;19.30;99.90;;;;;;5081531;28;20080;-36
2023/08/16 01:11:07;;;;;;;3.00;1.60;;;19.30;99.90;;;;;;5081584;28;20055;-36
2023/08/16 01:13:59;;;;;;;1.95;1.70;;;19.30;99.90;;;;;;5080862;28;20697;-36
2023/08/16 01:16:28;;;;;;;3.03;1.50;;;19.40;99.90;;;;;;5075575;28;20090;-37
2023/08/16 01:18:54;;;;;;;2.20;1.35;;;19.40;99.90;;;;;;5082135;28;20111;-36
2023/08/16 01:21:21;;;;;;;2.70;1.60;;;19.40;99.90;;;;;;5080028;28;20036;-38
2023/08/16 01:24:06;;;;;;;1.83;1.50;;;19.40;99.90;;;;;;5078192;28;20418;-37
2023/08/16 01:26:36;;;;;;;2.03;1.45;;;19.50;99.90;;;;;;5080017;28;20466;-36
2023/08/16 01:29:04;;;;;;;3.83;1.63;;;19.40;99.90;;;;;;5078777;28;20718;-37
2023/08/16 01:31:31;;;;;;;2.95;1.30;;;19.50;99.90;;;;;;5081713;28;20019;-36
2023/08/16 01:33:59;;;;;;;1.70;1.20;;;19.50;99.90;;;;;;5077799;28;20026;-37
2023/08/16 01:36:27;;;;;;;3.17;1.30;;;19.40;99.90;;;;;;5084073;28;20486;-36
2023/08/16 01:38:55;;;;;;;2.28;1.30;;;19.50;99.90;;;;;;5075813;28;20032;-37
2023/08/16 01:41:30;;;;;;;2.65;1.30;;;19.50;99.90;;;;;;5085111;28;20109;-37
2023/08/16 01:43:56;;;;;;;2.90;1.48;;;19.50;99.90;;;;;;5074133;28;20020;-36
2023/08/16 01:46:24;;;;;;;2.83;1.30;;;19.50;99.90;;;;;;5085185;28;20203;-37
2023/08/16 01:48:51;;;;;;;2.80;1.30;;;19.50;99.90;;;;;;5074589;28;20031;-37
2023/08/16 01:51:21;;;;;;;1.92;1.17;;;19.50;99.90;;;;;;5084303;28;20047;-39
2023/08/16 01:53:52;;;;;;;2.53;1.30;;;19.50;99.90;;;;;;5074499;28;20016;-37
2023/08/16 01:56:22;;;;;;;2.55;1.00;;;19.50;99.90;;;;;;5085865;28;20055;-38
2023/08/16 01:58:48;;;;;;;1.52;1.10;;;19.60;99.90;;;;;;5072916;28;20044;-39
2023/08/16 02:01:14;;;;;;;1.80;1.30;;;19.70;99.90;;;;;;5085416;28;20129;-38
2023/08/16 02:03:40;;;;;;;2.95;1.52;;;19.60;99.90;;;;;;5079122;28;20490;-38
2023/08/16 02:06:06;;;;;;;2.20;1.35;;;19.60;99.90;;;;;;5084764;28;20028;-36
2023/08/16 02:08:32;;;;;;;1.65;1.25;;;19.60;99.90;;;;;;5075309;28;20025;-35
2023/08/16 02:10:58;;;;;;;3.30;1.50;;;19.70;99.90;;;;;;5084173;28;20028;-39
2023/08/16 02:13:24;;;;;;;4.10;1.63;;;19.70;99.90;;;;;;5076159;28;20468;-37
2023/08/16 02:15:57;;;;;;;5.80;1.50;;;19.60;99.90;;;;;;5081946;28;20065;-38
2023/08/16 02:18:23;;;;;;;2.75;1.30;;;19.60;99.90;;;;;;5079311;28;20017;-37
2023/08/16 02:20:52;;;;;;;4.50;1.33;;;19.50;99.90;;;;;;5079355;28;20048;-38
2023/08/16 02:23:18;;;;;;;2.95;1.40;;;19.50;99.90;;;;;;5080827;28;20153;-36
2023/08/16 02:25:44;;;;;;;2.65;1.35;;;19.50;99.90;;;;;;5077606;28;20485;-37
2023/08/16 02:28:10;;;;;;;2.30;1.60;;;19.50;99.90;;;;;;5083602;28;20586;-36
2023/08/16 02:30:36;;;;;;;4.53;1.73;;;19.40;99.90;;;;;;5074960;28;20028;-38
2023/08/16 02:33:01;;;;;;;1.90;1.30;;;19.40;99.90;;;;;;5064050;28;20471;-40
2023/08/16 02:35:28;;;;;;;2.80;1.67;;;19.40;99.90;;;;;;5075748;28;20506;-38
2023/08/16 02:37:54;;;;;;;5.90;1.70;;;19.30;99.90;;;;;;5065192;28;20110;-37
2023/08/16 02:40:20;;;;;;;5.72;1.60;;;19.30;99.90;;;;;;5075951;28;20217;-37
2023/08/16 02:42:46;;;;;;;3.15;1.52;;;19.30;99.90;;;;;;5065834;28;20035;-36
2023/08/16 02:45:15;;;;;;;2.53;1.80;;;19.30;99.90;;;;;;5077006;28;20027;-37
2023/08/16 02:47:41;;;;;;;6.18;1.90;;;19.30;99.90;;;;;;5065133;28;20028;-37
2023/08/16 02:50:07;;;;;;;6.97;1.88;;;19.30;99.90;;;;;;5077134;28;20035;-38
2023/08/16 02:52:33;;;;;;;3.25;2.05;;;19.30;99.90;;;;;;5065073;28;20056;-37
2023/08/16 02:54:58;;;;;;;6.07;1.92;;;19.30;99.90;;;;;;5074309;28;20035;-37
2023/08/16 02:57:27;;;;;;;6.22;1.77;;;19.40;99.90;;;;;;5066755;28;20555;-38
2023/08/16 02:59:54;;;;;;;3.10;1.80;;;19.40;99.90;;;;;;5072586;28;20542;-37
2023/08/16 03:02:20;;;;;;;4.10;1.85;;;19.40;99.90;;;;;;5068081;28;20067;-37
2023/08/16 03:04:45;;;;;;;2.65;1.75;;;19.40;99.90;;;;;;5073954;28;20086;-38
2023/08/16 03:07:14;;;;;;;4.38;1.73;;;19.40;99.90;;;;;;5077032;28;20043;-36
2023/08/16 03:09:40;;;;;;;4.15;1.55;;;19.40;99.90;;;;;;5080188;28;20066;-37
2023/08/16 03:12:06;;;;;;;5.82;1.70;;;19.40;99.90;;;;;;5074620;28;20058;-35
2023/08/16 03:14:32;;;;;;;3.60;1.67;;;19.40;99.90;;;;;;5083411;28;20529;-37
2023/08/16 03:16:58;;;;;;;5.22;2.00;;;19.40;99.90;;;;;;5072582;28;20020;-37
2023/08/16 03:19:25;;;;;;;1.48;1.23;;;19.40;99.90;;;;;;5082820;28;20114;-37
2023/08/16 03:21:51;;;;;;;6.47;1.50;;;19.40;99.90;;;;;;5073018;28;20138;-36
2023/08/16 03:24:17;;;;;;;3.13;1.70;;;19.40;99.90;;;;;;5083992;28;20031;-37
2023/08/16 03:26:46;;;;;;;4.03;1.40;;;19.40;99.90;;;;;;5071595;28;20027;-36
2023/08/16 03:29:11;;;;;;;1.85;1.40;;;19.30;99.90;;;;;;5083455;28;20408;-37
2023/08/16 03:31:37;;;;;;;4.00;1.40;;;19.40;99.90;;;;;;5071367;28;20418;-37
2023/08/16 03:34:03;;;;;;;1.85;1.27;;;19.30;99.90;;;;;;5083557;28;20467;-38
2023/08/16 03:36:32;;;;;;;6.03;1.75;;;19.40;99.90;;;;;;5073197;28;20098;-36
2023/08/16 03:38:57;;;;;;;11.32;1.73;;;19.40;99.90;;;;;;5081476;28;20032;-36
2023/08/16 03:41:29;;;;;;;10.20;2.38;;;19.40;99.90;;;;;;5073695;28;20096;-37
2023/08/16 03:43:55;;;;;;;16.00;2.00;;;19.40;99.90;;;;;;5079730;28;20581;-36
2023/08/16 03:46:20;;;;;;;4.45;1.55;;;19.40;99.90;;;;;;5075732;28;20025;-37
2023/08/16 03:48:46;;;;;;;9.30;2.38;;;19.40;99.90;;;;;;5078033;28;20046;-36
2023/08/16 03:51:12;;;;;;;5.75;1.70;;;19.30;99.90;;;;;;5078802;28;20682;-36
2023/08/16 03:53:37;;;;;;;6.22;2.30;;;19.30;99.90;;;;;;5075532;28;20032;-37
2023/08/16 03:56:03;;;;;;;9.95;2.15;;;19.20;99.90;;;;;;5081619;28;20475;-36
2023/08/16 03:58:29;;;;;;;7.65;2.28;;;19.20;99.90;;;;;;5071409;28;20089;-37
2023/08/16 04:00:58;;;;;;;5.18;2.15;;;19.10;99.90;;;;;;5081740;28;20028;-37
2023/08/16 04:03:23;;;;;;;5.68;2.88;;;19.00;99.90;;;;;;5069091;28;20070;-37
2023/08/16 04:05:49;;;;;;;4.88;1.80;;;19.00;99.90;;;;;;5063129;28;20028;-38
2023/08/16 04:08:15;;;;;;;7.60;2.20;;;18.90;99.90;;;;;;5075142;28;20131;-36
2023/08/16 04:10:41;;;;;;;3.95;2.28;;;18.90;99.90;;;;;;5064083;28;20480;-38
2023/08/16 04:13:07;;;;;;;10.73;2.30;;;18.80;99.90;;;;;;5075764;28;20027;-38
2023/08/16 04:15:32;;;;;;;3.35;1.90;;;18.80;99.90;;;;;;5067450;28;20036;-37
2023/08/16 04:17:58;;;;;;;5.53;2.00;;;18.80;99.90;;;;;;5078849;28;20024;-37
2023/08/16 04:20:24;;;;;;;7.18;1.90;;;18.80;99.90;;;;;;5067158;28;20129;-37
2023/08/16 04:22:50;;;;;;;3.13;1.60;;;18.70;99.90;;;;;;5076701;28;20017;-36
2023/08/16 04:25:16;;;;;;;2.67;1.50;;;18.70;99.90;;;;;;5069714;28;20025;-39
2023/08/16 04:27:42;;;;;;;5.50;2.25;;;18.60;99.90;;;;;;5074463;28;20036;-37
2023/08/16 04:30:10;;;;;;;4.28;2.00;;;18.60;99.90;;;;;;5073290;28;20057;-36
2023/08/16 04:32:36;;;;;;;4.70;1.80;;;18.60;99.90;;;;;;5071379;28;20043;-37
2023/08/16 04:35:05;;;;;;;5.05;2.00;;;18.60;99.90;;;;;;5074754;28;20620;-37
2023/08/16 04:37:31;;;;;;;6.57;1.88;;;18.60;99.90;;;;;;5069826;28;20384;-37
2023/08/16 04:40:03;;;;;;;9.88;2.05;;;18.60;99.90;;;;;;5077464;28;20024;-37
2023/08/16 04:42:31;;;;;;;12.48;3.80;;;18.60;99.90;;;;;;5069114;28;20028;-36
2023/08/16 04:44:57;;;;;;;2.15;1.60;;;18.50;99.90;;;;;;5078497;28;20033;-36
2023/08/16 04:47:22;;;;;;;3.90;1.30;;;18.50;99.90;;;;;;5065752;28;20810;-36
2023/08/16 04:49:48;;;;;;;4.45;1.58;;;18.50;99.90;;;;;;5076779;28;20024;-36
2023/08/16 04:52:14;;;;;;;4.47;1.70;;;18.50;99.90;;;;;;5065063;28;20048;-36
2023/08/16 04:54:39;;;;;;;6.18;1.67;;;18.40;99.90;;;;;;5077748;28;20029;-38
2023/08/16 04:57:05;;;;;;;2.63;1.63;;;18.40;99.90;;;;;;5066047;28;20808;-38
2023/08/16 04:59:30;;;;;;;4.38;1.85;;;18.40;99.90;;;;;;5079914;28;20020;-38
2023/08/16 05:01:59;;;;;;;2.47;1.63;;;18.40;99.90;;;;;;5065567;28;20036;-36
2023/08/16 05:04:25;;;;;;;4.30;1.50;;;18.30;99.90;;;;;;5079763;28;20024;-36
2023/08/16 05:06:50;;;;;;;4.78;1.85;;;18.30;99.90;;;;;;5067491;28;20036;-36
2023/08/16 05:09:16;;;;;;;8.93;1.88;;;18.30;99.90;;;;;;5073213;28;20213;-36
2023/08/16 05:11:42;;;;;;;4.35;2.10;;;18.30;99.90;;;;;;5071882;28;20139;-37
2023/08/16 05:14:07;;;;;;;5.13;2.30;;;18.30;99.90;;;;;;5071821;28;20012;-37
2023/08/16 05:16:33;;;;;;;3.92;2.00;;;18.20;99.90;;;;;;5074166;28;20480;-36
2023/08/16 05:18:58;;;;;;;4.75;1.95;;;18.30;99.90;;;;;;5069499;28;20021;-37
2023/08/16 05:21:24;;;;;;;5.55;2.40;;;18.30;99.90;;;;;;5076633;28;20147;-36
2023/08/16 05:23:50;;;;;;;4.13;2.30;;;18.40;99.90;;;;;;5067943;28;20020;-42
2023/08/16 05:26:16;;;;;;;4.00;2.58;;;18.40;99.90;;;;;;5076430;28;20025;-38
2023/08/16 05:28:41;;;;;;;5.32;2.35;;;18.50;99.90;;;;;;5067516;28;20413;-37
2023/08/16 05:31:11;;;;;;;5.70;2.50;;;18.50;99.90;;;;;;5077086;28;20086;-36
2023/08/16 05:33:38;;;;;;;6.30;2.55;;;18.60;99.90;;;;;;5067211;28;20024;-38
2023/08/16 05:36:04;;;;;;;7.15;2.65;;;18.60;99.90;;;;;;5077364;28;20111;-34
2023/08/16 05:38:30;;;;;;;4.05;2.75;;;18.50;99.90;;;;;;5066876;28;20099;-35
2023/08/16 05:40:56;;;;;;;5.57;2.78;;;18.50;99.90;;;;;;5079448;28;20629;-35
2023/08/16 05:43:21;;;;;;;7.25;3.03;;;18.50;99.90;;;;;;5065626;28;20029;-36
2023/08/16 05:45:47;;;;;;;4.55;2.92;;;18.50;99.90;;;;;;5077157;28;20024;-37
2023/08/16 05:48:12;;;;;;;4.45;2.70;;;18.50;99.90;;;;;;5067680;28;20486;-37
2023/08/16 05:50:39;;;;;;;4.70;2.47;;;18.50;99.90;;;;;;5073207;28;20147;-36
2023/08/16 05:53:05;;;;;;;7.13;2.58;;;18.60;99.90;;;;;;5069963;28;20029;-36
2023/08/16 05:55:30;;;;;;;4.18;2.75;;;18.60;99.90;;;;;;5070655;28;20463;-37
2023/08/16 05:57:56;;;;;;;5.82;2.80;;;18.60;99.90;;;;;;5070785;28;20460;-37
2023/08/16 06:00:22;;;;;;;5.75;2.80;;;18.70;99.90;;;;;;5066552;28;20073;-36
2023/08/16 06:02:47;;;;;;;6.78;2.70;;;18.70;99.90;;;;;;5074434;28;20036;-36
2023/08/16 06:05:13;;;;;;;4.07;2.38;;;18.70;99.90;;;;;;5078621;28;20034;-36
2023/08/16 06:07:39;;;;;;;4.00;2.50;;;18.70;99.90;;;;;;5074789;28;20123;-37
2023/08/16 06:10:08;;;;;;;7.57;2.80;;;18.70;99.90;;;;;;5084993;28;20034;-36
2023/08/16 06:12:34;;;;;;;5.32;2.60;;;18.70;99.90;;;;;;5071488;28;20031;-36
2023/08/16 06:15:00;;;;;;;7.38;3.00;;;18.70;99.90;;;;;;5085626;28;20031;-36
2023/08/16 06:17:25;;;;;;;3.08;2.40;;;18.70;99.90;;;;;;5072511;28;20106;-38
2023/08/16 06:19:51;;;;;;;5.68;2.83;;;18.70;99.90;;;;;;5084969;28;20031;-36
2023/08/16 06:22:16;;;;;;;3.42;2.47;;;18.70;99.90;;;;;;5071281;28;20123;-34
2023/08/16 06:24:42;;;;;;;5.90;2.35;;;18.70;99.90;;;;;;5085743;28;20157;-35
2023/08/16 06:27:11;;;;;;;3.45;2.38;;;18.70;99.90;;;;;;5074038;28;20025;-36
2023/08/16 06:29:39;;;;;;;4.85;2.80;;;18.80;99.90;;;;;;5084169;28;20024;-35
2023/08/16 06:32:06;;;;;;;3.67;2.20;;;18.80;99.90;;;;;;5075266;28;20032;-36
2023/08/16 06:34:33;;;;;;;4.72;2.85;;;18.90;99.90;;;;;;5081669;28;20027;-35
2023/08/16 06:37:02;;;;;;;4.90;2.60;;;19.00;99.90;;;;;;5078246;28;20020;-36
2023/08/16 06:39:28;;;;;;;3.70;2.40;;;19.00;99.90;;;;;;5078176;28;20031;-36
2023/08/16 06:41:56;;;;;;;3.47;2.53;;;19.10;99.90;;;;;;5080978;28;20041;-35
2023/08/16 06:44:22;;;;;;;3.40;2.55;;;19.20;99.90;;;;;;5076984;28;20360;-35
2023/08/16 06:46:57;;;;;;;5.07;2.40;;;19.20;99.90;;;;;;5082658;28;20069;-36
2023/08/16 06:49:23;;;;;;;3.90;2.20;;;19.30;99.90;;;;;;5075072;28;20561;-36
2023/08/16 06:51:48;;;;;;;2.97;1.95;;;19.30;99.90;;;;;;5083776;28;20053;-36
2023/08/16 06:54:14;;;;;;;3.15;2.40;;;19.30;99.90;;;;;;5072776;28;20484;-36
2023/08/16 06:56:39;;;;;;;4.00;2.20;;;19.40;99.90;;;;;;5083527;28;20032;-35
2023/08/16 06:59:05;;;;;;;2.55;1.83;;;19.50;99.90;;;;;;5076589;28;20476;-36
2023/08/16 07:01:31;;;;;;;3.05;1.88;;;19.50;99.90;;;;;;5063723;28;20451;-36
2023/08/16 07:03:56;;;;;;;3.38;1.60;;;19.60;99.90;;;;;;5074169;28;20017;-36
2023/08/16 07:06:26;;;;;;;2.80;1.75;;;19.70;99.90;;;;;;5064582;28;20039;-36
2023/08/16 07:08:54;;;;;;;5.68;1.85;;;19.80;99.90;;;;;;5075617;28;20142;-36
2023/08/16 07:11:20;;;;;;;3.55;1.90;;;19.80;99.90;;;;;;5062413;28;20067;-36
2023/08/16 07:13:47;;;;;;;3.03;1.88;;;19.80;99.90;;;;;;5073741;28;20102;-36
2023/08/16 07:16:13;;;;;;;4.72;1.88;;;19.90;99.90;;;;;;5063706;28;20063;-36
2023/08/16 07:18:38;;;;;;;3.80;1.95;;;19.90;99.90;;;;;;5072037;28;20515;-35
2023/08/16 07:21:13;;;;;;;3.03;1.90;;;19.90;99.90;;;;;;5066925;28;20043;-35
2023/08/16 07:23:38;;;;;;;4.07;2.00;;;19.90;99.90;;;;;;5071265;28;20023;-36
2023/08/16 07:26:04;;;;;;;3.20;1.50;;;19.90;99.90;;;;;;5069194;28;20032;-34
2023/08/16 07:28:30;;;;;;;3.42;1.73;;;19.90;99.90;;;;;;5068177;28;20016;-36
2023/08/16 07:30:55;;;;;;;3.58;1.58;;;20.00;99.90;;;;;;5072653;28;20060;-36
2023/08/16 07:33:22;;;;;;;2.92;1.35;;;20.10;99.90;;;;;;5065057;28;20107;-36
2023/08/16 07:35:48;;;;;;;5.93;1.75;;;20.00;99.90;;;;;;5074518;28;20059;-34
2023/08/16 07:38:14;;;;;;;3.35;1.20;;;20.00;99.90;;;;;;5064279;28;20104;-36
2023/08/16 07:40:39;;;;;;;2.25;1.40;;;20.00;99.90;;;;;;5075111;28;20480;-34
2023/08/16 07:43:06;;;;;;;3.47;1.27;;;19.90;99.90;;;;;;5063750;28;20027;-36
2023/08/16 07:45:32;;;;;;;2.95;1.67;;;19.80;99.90;;;;;;5076177;28;20552;-36
2023/08/16 07:47:57;;;;;;;2.30;1.45;;;19.80;99.90;;;;;;5064059;28;20025;-36
2023/08/16 07:50:23;;;;;;;4.05;1.50;;;19.80;99.90;;;;;;5074497;28;20093;-37
2023/08/16 07:52:49;;;;;;;2.97;1.73;;;19.70;99.90;;;;;;5064577;28;20035;-36
2023/08/16 07:55:16;;;;;;;3.83;1.98;;;19.60;99.90;;;;;;5075624;28;20035;-36
2023/08/16 07:57:41;;;;;;;3.72;1.75;;;19.60;99.90;;;;;;5064034;28;20024;-36
2023/08/16 08:00:11;;;;;;;1.77;1.33;;;19.60;99.90;;;;;;5073018;28;20500;-36
2023/08/16 08:02:38;;;;;;;1.90;1.40;;;19.60;99.90;;;;;;5066510;28;20115;-36
2023/08/16 08:05:05;;;;;;;2.13;1.30;;;19.60;99.90;;;;;;5069113;28;20347;-36
2023/08/16 08:07:30;;;;;;;3.38;2.00;;;19.70;99.90;;;;;;5078851;28;20036;-34
2023/08/16 08:09:57;;;;;;;2.80;1.55;;;19.70;99.90;;;;;;5079169;28;20031;-36
2023/08/16 08:12:25;;;;;;;1.63;1.20;;;19.70;99.90;;;;;;5076252;28;20031;-35
2023/08/16 08:14:51;;;;;;;3.53;1.50;;;19.80;99.90;;;;;;5078426;28;20519;-35
2023/08/16 08:17:16;;;;;;;3.13;1.60;;;19.80;99.90;;;;;;5072146;28;20060;-35
2023/08/16 08:19:42;;;;;;;2.70;1.42;;;19.80;99.90;;;;;;5064072;28;20524;-35
2023/08/16 08:22:09;;;;;;;2.65;1.80;;;19.90;99.90;;;;;;5073302;28;20140;-35
2023/08/16 08:24:35;;;;;;;2.13;1.80;;;19.90;99.90;;;;;;5063707;28;20021;-35
2023/08/16 08:27:01;;;;;;;3.72;1.63;;;19.90;99.90;;;;;;5074011;28;20085;-37
2023/08/16 08:29:26;;;;;;;2.92;1.75;;;19.90;99.90;;;;;;5063717;28;20020;-36
2023/08/16 08:31:53;;;;;;;3.55;1.83;;;20.00;99.90;;;;;;5076264;28;20031;-35
2023/08/16 08:34:19;;;;;;;4.45;1.85;;;20.00;99.90;;;;;;5063296;28;20047;-36
2023/08/16 08:36:44;;;;;;;2.10;1.58;;;20.00;99.90;;;;;;5076245;28;20396;-35
2023/08/16 08:39:10;;;;;;;3.83;1.83;;;20.10;99.90;;;;;;5062660;28;20027;-35
2023/08/16 08:41:37;;;;;;;4.57;1.50;;;20.10;99.90;;;;;;5072856;28;20089;-36
2023/08/16 08:44:04;;;;;;;3.10;1.50;;;20.20;99.90;;;;;;5065171;28;20787;-36
2023/08/16 08:46:34;;;;;;;1.80;1.50;;;20.30;99.90;;;;;;5070284;28;20131;-36
2023/08/16 08:49:03;;;;;;;2.35;1.48;;;20.40;99.90;;;;;;5067224;28;20024;-35
2023/08/16 08:51:30;;;;;;;5.53;1.50;;;20.40;99.90;;;;;;5069113;28;20104;-36
2023/08/16 08:53:56;;;;;;;3.50;2.03;;;20.40;99.90;;;;;;5069099;28;20524;-36
2023/08/16 08:56:23;;;;;;;4.03;1.60;;;20.40;99.90;;;;;;5066949;28;20025;-36
2023/08/16 08:58:50;;;;;;;2.80;1.65;;;20.50;99.90;;;;;;5071822;28;20033;-35
2023/08/16 09:01:17;;;;;;;3.58;1.60;;;20.50;99.90;;;;;;5064283;28;20044;-35
2023/08/16 09:03:44;;;;;;;2.67;1.75;;;20.50;99.90;;;;;;5079521;28;20085;-37
2023/08/16 09:06:11;;;;;;;2.53;1.83;;;20.50;99.90;;;;;;5085050;28;20499;-37
2023/08/16 09:08:37;;;;;;;3.28;1.70;;;20.60;99.90;;;;;;5075943;28;20027;-34
2023/08/16 09:11:03;;;;;;;2.97;1.77;;;20.60;99.90;;;;;;5086422;28;20028;-35
2023/08/16 09:13:31;;;;;;;5.53;2.05;;;20.60;99.90;;;;;;5076093;28;20077;-36
2023/08/16 09:15:59;;;;;;;2.83;1.83;;;20.70;99.90;;;;;;5087495;28;20032;-35
2023/08/16 09:18:27;;;;;;;2.30;1.55;;;20.70;99.90;;;;;;5074532;28;20540;-36
2023/08/16 09:20:52;;;;;;;3.85;1.95;;;20.80;99.90;;;;;;5086967;28;20505;-37
2023/08/16 09:23:18;;;;;;;3.90;1.73;;;20.80;99.90;;;;;;5073405;28;20029;-35
2023/08/16 09:25:44;;;;;;;3.75;1.80;;;20.90;99.90;;;;;;5066829;28;20032;-37
2023/08/16 09:28:14;;;;;;;3.65;1.65;;;21.00;99.90;;;;;;5074387;28;20031;-37
2023/08/16 09:30:46;;;;;;;4.30;2.00;;;21.10;99.90;;;;;;5067251;28;20039;-35
2023/08/16 09:33:18;;;;;;;2.97;2.03;;;21.10;99.90;;;;;;5073692;28;20103;-36
2023/08/16 09:35:48;;;;;;;2.22;1.52;;;21.20;99.90;;;;;;5067866;28;20028;-36
2023/08/16 09:38:18;;;;;;;3.40;1.70;;;21.20;99.90;;;;;;5073064;28;20034;-35
2023/08/16 09:40:48;;;;;;;4.00;1.98;;;21.30;99.90;;;;;;5069184;28;20048;-35
2023/08/16 09:43:13;;;;;;;2.55;1.23;;;21.40;99.90;;;;;;5071712;28;20047;-35
2023/08/16 09:45:40;;;;;;;2.47;1.50;;;21.40;99.90;;;;;;5072520;28;20469;-36
2023/08/16 09:48:08;;;;;;;2.80;1.48;;;21.50;99.90;;;;;;5069067;28;20528;-35
2023/08/16 09:50:35;;;;;;;3.05;1.30;;;21.50;99.90;;;;;;5072687;28;20033;-36
2023/08/16 09:53:04;;;;;;;4.70;1.52;;;21.60;99.90;;;;;;5067584;28;20123;-36
2023/08/16 09:55:34;;;;;;;1.92;1.23;;;21.60;99.90;;;;;;5075895;28;20115;-36
2023/08/16 09:58:01;;;;;;;2.67;1.30;;;21.70;99.90;;;;;;5066421;28;20017;-36
2023/08/16 10:00:28;;;;;;;4.88;1.20;;;21.70;99.90;;;;;;5077074;28;20476;-36
2023/08/16 10:02:55;;;;;;;6.00;1.98;;;21.70;99.90;;;;;;5067151;28;20032;-35
2023/08/16 10:05:20;;;;;;;7.28;1.90;;;21.70;99.90;;;;;;5067372;28;20092;-35
2023/08/16 10:07:49;;;;;;;2.03;1.67;;;21.80;99.90;;;;;;5067198;28;20154;-36
2023/08/16 10:10:18;;;;;;;2.38;1.45;;;21.80;99.90;;;;;;5071522;28;20119;-35
2023/08/16 10:12:46;;;;;;;2.60;1.50;;;21.80;99.90;;;;;;5085585;28;20147;-36
2023/08/16 10:15:12;;;;;;;3.67;1.85;;;21.90;99.90;;;;;;5072655;28;20025;-36
2023/08/16 10:17:39;;;;;;;3.28;1.40;;;22.00;99.90;;;;;;5085513;28;20032;-36
2023/08/16 10:20:21;;;;;;;4.43;1.40;;;22.00;99.90;;;;;;5073196;28;20024;-36
2023/08/16 10:22:58;;;;;;;1.52;1.00;;;22.10;99.90;;;;;;5065845;28;20032;-36
2023/08/16 10:25:27;;;;;;;2.88;1.70;;;22.20;99.90;;;;;;5077042;28;20024;-35
2023/08/16 10:27:55;;;;;;;2.60;1.42;;;22.40;99.90;;;;;;5065929;28;20071;-35
2023/08/16 10:30:25;;;;;;;2.22;1.30;;;22.40;99.90;;;;;;5075980;28;20073;-36
2023/08/16 10:33:06;;;;;;;2.17;1.33;;;22.50;99.90;;;;;;5065566;28;20032;-36
2023/08/16 10:35:37;;;;;;;1.80;1.13;;;22.60;99.90;;;;;;5075090;28;20020;-36
2023/08/16 10:38:05;;;;;;;1.50;1.00;;;22.60;99.90;;;;;;5063183;28;20039;-34
2023/08/16 10:40:37;;;;;;;1.85;1.13;;;22.70;99.90;;;;;;5073131;28;20028;-35
2023/08/16 10:43:08;;;;;;;3.92;1.17;;;22.60;99.90;;;;;;5066157;28;20035;-35
2023/08/16 10:45:34;;;;;;;3.25;1.05;;;22.60;99.90;;;;;;5072390;28;20020;-35
2023/08/16 10:48:15;;;;;;;2.33;1.10;;;22.70;99.90;;;;;;5068396;28;20111;-35
2023/08/16 10:50:44;;;;;;;2.08;1.00;;;22.70;99.90;;;;;;5072430;28;20119;-35
2023/08/16 10:53:12;;;;;;;3.10;1.30;;;22.80;99.90;;;;;;5067493;28;20115;-36
2023/08/16 10:55:39;;;;;;;3.22;1.20;;;22.80;99.90;;;;;;5070918;28;20027;-35
2023/08/16 10:58:05;;;;;;;2.65;1.30;;;22.90;99.90;;;;;;5069919;28;20017;-36
2023/08/16 11:00:35;;;;;;;1.75;1.08;;;22.90;99.90;;;;;;5067973;28;20043;-35
2023/08/16 11:03:02;;;;;;;2.13;1.25;;;22.90;99.90;;;;;;5071759;28;20017;-35
2023/08/16 11:05:30;;;;;;;2.03;1.20;;;23.00;99.90;;;;;;5077572;28;20489;-43
2023/08/16 11:08:01;;;;;;;2.85;1.00;;;23.10;99.90;;;;;;5075071;28;20052;-35
2023/08/16 11:10:39;;;;;;;2.30;1.30;;;23.20;99.90;;;;;;5083116;28;20040;-35
2023/08/16 11:13:10;;;;;;;2.00;1.02;;;23.20;99.90;;;;;;5073952;28;20031;-37
2023/08/16 11:15:36;;;;;;;1.60;1.30;;;23.30;99.90;;;;;;5083300;28;20048;-37
2023/08/16 11:18:02;;;;;;;2.53;1.02;;;23.40;99.90;;;;;;5071987;28;20171;-35
2023/08/16 11:20:29;;;;;;;1.95;1.10;;;23.50;99.90;;;;;;5082548;28;20725;-36
2023/08/16 11:22:57;;;;;;;1.27;0.90;;;23.70;99.90;;;;;;5072732;28;20032;-36
2023/08/16 11:25:36;;;;;;;1.45;1.02;;;24.00;99.90;;;;;;5083460;28;20024;-36
2023/08/16 11:28:03;;;;;;;1.73;0.88;;;24.20;99.90;;;;;;5071460;28;20761;-36
2023/08/16 11:30:41;;;;;;;2.95;1.05;;;24.20;99.90;;;;;;5084093;28;20043;-36
2023/08/16 11:33:16;;;;;;;2.65;0.90;;;24.30;99.90;;;;;;5071506;28;20020;-36
2023/08/16 11:35:41;;;;;;;2.53;1.30;;;24.20;99.90;;;;;;5083949;28;20028;-36
2023/08/16 11:38:07;;;;;;;1.05;0.82;;;24.20;99.90;;;;;;5070611;28;20017;-37
2023/08/16 11:40:32;;;;;;;1.98;1.23;;;24.20;99.90;;;;;;5084193;28;20138;-36
2023/08/16 11:43:04;;;;;;;1.38;1.10;;;24.20;99.90;;;;;;5069850;28;20028;-37
2023/08/16 11:45:30;;;;;;;1.70;1.00;;;24.10;99.90;;;;;;5083692;28;20024;-35
2023/08/16 11:47:55;;;;;;;1.00;0.90;;;24.10;99.90;;;;;;5071787;28;20041;-35
2023/08/16 11:50:24;;;;;;;3.20;1.05;;;24.10;99.90;;;;;;5080252;28;20850;-36
2023/08/16 11:53:00;;;;;;;1.05;0.90;;;24.00;99.90;;;;;;5074690;28;20055;-36
2023/08/16 11:55:28;;;;;;;2.30;1.00;;;24.00;99.90;;;;;;5080691;28;20028;-36
2023/08/16 11:58:05;;;;;;;2.00;0.80;;;24.00;99.90;;;;;;5075294;28;20025;-35
2023/08/16 12:00:33;;;;;;;1.38;0.80;;;24.00;99.90;;;;;;5080717;28;20388;-36
2023/08/16 12:03:03;;;;;;;1.50;1.10;;;24.00;99.90;;;;;;5075583;28;20449;-36
2023/08/16 12:05:36;;;;;;;1.33;1.00;;;24.00;99.90;;;;;;5063668;28;20038;-37
2023/08/16 12:08:08;;;;;;;1.17;0.80;;;23.90;99.90;;;;;;5069661;28;20027;-36
2023/08/16 12:10:34;;;;;;;;;;;23.90;99.90;;;;;;5068332;28;20035;-35
2023/08/16 12:13:12;;;;;;;2.70;1.05;;;23.80;99.90;;;;;;5064415;28;19909;-35
2023/08/16 12:15:42;;;;;;;1.52;1.00;;;23.80;99.90;;;;;;5077613;28;20024;-35
2023/08/16 12:18:08;;;;;;;1.00;0.82;;;23.80;99.90;;;;;;5078621;28;20175;-36
2023/08/16 12:20:35;;;;;;;1.25;1.00;;;23.70;99.90;;;;;;5075354;28;20145;-35
2023/08/16 12:23:02;;;;;;;1.90;1.10;;;23.80;99.90;;;;;;5082087;28;20372;-35
2023/08/16 12:25:28;;;;;;;2.05;1.10;;;23.80;99.90;;;;;;5072112;28;20016;-35
2023/08/16 12:27:54;;;;;;;2.42;0.88;;;23.80;99.90;;;;;;5082052;28;20040;-36
2023/08/16 12:30:19;;;;;;;1.77;0.80;;;23.90;99.90;;;;;;5071473;28;20123;-36
2023/08/16 12:32:45;;;;;;;2.47;0.90;;;24.10;99.90;;;;;;5082714;28;20027;-35
2023/08/16 12:35:10;;;;;;;2.15;1.00;;;24.20;99.90;;;;;;5072035;28;20024;-36
2023/08/16 12:37:39;;;;;;;2.67;1.02;;;24.40;99.90;;;;;;5087046;28;20484;-35
2023/08/16 12:40:05;;;;;;;1.80;1.00;;;24.50;99.90;;;;;;5074616;28;20074;-36
2023/08/16 12:42:30;;;;;;;1.23;1.00;;;24.60;99.90;;;;;;5088057;28;20399;-37
2023/08/16 12:44:56;;;;;;;2.17;0.90;;;24.70;99.90;;;;;;5075511;28;20020;-36
2023/08/16 12:47:22;;;;;;;2.17;1.15;;;24.90;99.80;;;;;;5087424;28;20077;-35